Aérodrome :
LOGIN :

S'inscrire | Disclaimer

   EN    FR    IT 

 










Légende :    VFR   VFR Marginal   IFR   IFR Intensif   IFR Très Intensif
Visi : 
Plafond : 
>= 8 km
>= 3000ft
5 à 8 km
1000 à 3000 ft
1500m à 5 km
500 à 1000 ft
800 à 1500m
200 à 500 ft
< 800m
< 200 ft
Symboles :   Orages  Brouillard  Fortes neiges  Fortes précipitations  Vent > 20 kt
SIGMETs :   Divers  Orages  Givrage  Turbulence  Onde Orograph.  Cendres Volcan.







- Altitude de l'aérodrome : 129 ft
- Code IATA : ZCN


ETHC - Celle

DERNIER METAR :
  • 231638Z 25011KT 9000 BKN007 BKN017 11/10 Q1015 GRN

METARs EXPIRÉS :
  • 231620Z 25011KT 3000 -DZRA BR BKN007 BKN017 11/10 Q1015 YLO
  • 231601Z 24011KT 6000 -DZ BKN007 10/10 Q1015 GRN FCST CANCEL
  • 231520Z 22010KT 3000 -RADZ BR BKN006 BKN011 10/09 Q1015 YLO GRN TEMPO YLO
  • 231420Z 21010KT 3500 -RA BR BKN009 BKN020 10/09 Q1015 YLO GRN TEMPO YLO

TAF AMD TAF ETHC
Valide du 23 à 14h jusqu'au 23 à 23h UTC


231615Z 2314/2323 24006KT 8000 -RA BKN012 BKN020
TEMPO 2314/2320 28005KT 3000 RADZ BKN007
BECMG 2320/2322 27003KT 3000 BR SCT008 BKN015 CANCEL 1630
Pas de NOTAMs connus pour ce terrain.



MET'MAP, la Météo Aéronautique d'un coup d'oeil ! - Copyright ORBIFLY Décembre 2007 - Disclaimer

ORBIFLY MET'MAP TEAM :

Programmation & Développement : Alexandra Zaïnal
Conception & Développement : Baudouin d'Aumeries
Co-Programmation & Développement : Marc-Olivier Méhu
Soutien technique & logistique : Manuel Goepfert

Contact : metmap@orbifly.com




SOURCES & CREDITS :

   NOAA